createdAt,value
2022-08-03T00:00:35.190Z,17.11
2022-08-03T00:03:05.058Z,17.11
2022-08-03T00:05:33.747Z,17.15
2022-08-03T00:08:01.834Z,17.15
2022-08-03T00:10:30.703Z,17.13
2022-08-03T00:12:58.838Z,17.11
2022-08-03T00:15:27.009Z,17.12
2022-08-03T00:17:55.152Z,17.10
2022-08-03T00:20:23.373Z,17.11
2022-08-03T00:22:51.818Z,17.12
2022-08-03T00:25:20.090Z,17.06
2022-08-03T00:27:48.515Z,16.99
2022-08-03T00:30:19.168Z,16.96
2022-08-03T00:32:48.122Z,16.94
2022-08-03T00:35:37.166Z,16.92
2022-08-03T00:38:05.959Z,16.88
2022-08-03T00:40:34.553Z,16.86
2022-08-03T00:43:06.358Z,16.85
2022-08-03T00:45:37.017Z,16.84
2022-08-03T00:48:32.838Z,16.82
2022-08-03T00:50:56.567Z,16.80
2022-08-03T00:53:25.264Z,16.77
2022-08-03T00:55:53.469Z,16.75
2022-08-03T00:58:21.652Z,16.72
2022-08-03T01:00:50.123Z,16.74
2022-08-03T01:03:18.222Z,16.75
2022-08-03T01:05:52.328Z,16.77
2022-08-03T01:08:37.608Z,16.79
2022-08-03T01:11:29.245Z,16.77
2022-08-03T01:14:19.341Z,16.55
2022-08-03T01:16:52.951Z,16.37
2022-08-03T01:19:33.293Z,16.28
2022-08-03T01:22:24.551Z,16.26
2022-08-03T01:25:10.572Z,16.25
2022-08-03T01:28:10.680Z,16.21
2022-08-03T01:30:43.957Z,16.22
2022-08-03T01:33:21.276Z,16.20
2022-08-03T01:36:02.422Z,16.23
2022-08-03T01:38:36.006Z,16.23
2022-08-03T01:41:08.882Z,16.24
2022-08-03T01:44:28.303Z,16.23
2022-08-03T01:46:30.060Z,16.21
2022-08-03T01:49:00.240Z,16.17
2022-08-03T01:51:56.667Z,16.13
2022-08-03T01:54:24.024Z,16.11
2022-08-03T01:56:55.075Z,16.09
2022-08-03T01:59:25.093Z,16.07
2022-08-03T02:02:16.101Z,16.09
2022-08-03T02:04:45.530Z,16.04
2022-08-03T02:07:15.827Z,15.96
2022-08-03T02:09:47.154Z,15.92
2022-08-03T02:12:17.840Z,15.92
2022-08-03T02:14:48.977Z,15.88
2022-08-03T02:17:19.326Z,15.80
2022-08-03T02:20:11.181Z,15.71
2022-08-03T02:22:44.678Z,15.63
2022-08-03T02:25:15.277Z,15.62
2022-08-03T02:27:51.906Z,15.67
2022-08-03T02:30:20.992Z,15.67
2022-08-03T02:32:56.172Z,15.65
2022-08-03T02:35:28.942Z,15.62
2022-08-03T02:38:02.797Z,15.59
2022-08-03T02:40:33.290Z,15.60
2022-08-03T02:43:09.543Z,15.66
2022-08-03T02:45:45.696Z,15.71
2022-08-03T02:48:19.069Z,15.73
2022-08-03T02:50:48.048Z,15.72
2022-08-03T02:53:18.374Z,15.69
2022-08-03T02:55:49.861Z,15.61
2022-08-03T02:58:22.949Z,15.57
2022-08-03T03:00:52.619Z,15.57
2022-08-03T03:03:22.363Z,15.57
2022-08-03T03:05:53.534Z,15.58
2022-08-03T03:08:26.724Z,15.56
2022-08-03T03:10:59.615Z,15.51
2022-08-03T03:13:30.518Z,15.50
2022-08-03T03:16:02.822Z,15.49
2022-08-03T03:18:33.490Z,15.48
2022-08-03T03:21:03.693Z,15.45
2022-08-03T03:23:36.227Z,15.42
2022-08-03T03:26:05.522Z,15.41
2022-08-03T03:28:37.124Z,15.36
2022-08-03T03:31:07.015Z,15.31
2022-08-03T03:33:36.114Z,15.28
2022-08-03T03:36:06.546Z,15.31
2022-08-03T03:38:35.156Z,15.34
2022-08-03T03:41:04.620Z,15.36
2022-08-03T03:43:33.264Z,15.36
2022-08-03T03:46:01.569Z,15.37
2022-08-03T03:48:29.825Z,15.38
2022-08-03T03:51:01.494Z,15.42
2022-08-03T03:53:29.785Z,15.46
2022-08-03T03:56:02.020Z,15.54
2022-08-03T03:58:32.903Z,15.68
2022-08-03T04:01:01.749Z,15.83
2022-08-03T04:03:30.335Z,16.04
2022-08-03T04:06:17.473Z,16.24
2022-08-03T04:09:04.749Z,16.42
2022-08-03T04:11:44.461Z,16.66
2022-08-03T04:14:18.224Z,16.87
2022-08-03T04:16:53.855Z,17.03
2022-08-03T04:19:37.921Z,17.19
2022-08-03T04:22:10.080Z,17.38
2022-08-03T04:24:55.850Z,17.61
2022-08-03T04:27:27.641Z,17.89
2022-08-03T04:29:57.629Z,18.15
2022-08-03T04:32:28.853Z,18.42
2022-08-03T04:34:57.449Z,18.69
2022-08-03T04:37:28.606Z,18.93
2022-08-03T04:40:01.952Z,19.20
2022-08-03T04:42:33.486Z,19.47
2022-08-03T04:45:04.401Z,19.69
2022-08-03T04:47:34.017Z,19.92
2022-08-03T04:50:04.942Z,20.19
2022-08-03T04:52:36.569Z,20.42
2022-08-03T04:55:05.319Z,20.62
2022-08-03T04:57:33.507Z,20.82
2022-08-03T05:00:03.602Z,21.09
2022-08-03T05:02:32.387Z,21.42
2022-08-03T05:05:01.096Z,21.78
2022-08-03T05:07:36.436Z,22.10
2022-08-03T05:10:15.966Z,22.39
2022-08-03T05:12:46.590Z,22.69
2022-08-03T05:15:15.354Z,22.92
2022-08-03T05:17:43.852Z,23.21
2022-08-03T05:20:12.330Z,23.43
2022-08-03T05:22:40.442Z,23.71
2022-08-03T05:25:08.869Z,23.84
2022-08-03T05:27:37.162Z,23.86
2022-08-03T05:30:31.225Z,23.92
2022-08-03T05:32:54.231Z,23.98
2022-08-03T05:35:57.524Z,24.18
2022-08-03T05:38:13.759Z,24.42
2022-08-03T05:40:57.535Z,24.83
2022-08-03T05:43:40.837Z,25.27
2022-08-03T05:46:12.074Z,25.50
2022-08-03T05:48:42.167Z,25.78
2022-08-03T05:51:11.955Z,26.01
2022-08-03T05:53:42.090Z,26.31
2022-08-03T05:56:14.730Z,26.60
2022-08-03T05:58:45.710Z,26.95
2022-08-03T06:01:14.405Z,27.33
2022-08-03T06:03:43.035Z,27.48
2022-08-03T06:06:11.862Z,27.68
2022-08-03T06:08:41.672Z,27.83
2022-08-03T06:11:10.342Z,27.87
2022-08-03T06:13:39.709Z,28.14
2022-08-03T06:16:08.306Z,28.34
2022-08-03T06:18:37.086Z,28.62
2022-08-03T06:21:14.378Z,28.50
2022-08-03T06:23:54.791Z,28.45
2022-08-03T06:26:28.038Z,28.48
2022-08-03T06:28:56.309Z,28.72
2022-08-03T06:31:33.425Z,29.04
2022-08-03T06:34:32.154Z,29.51
2022-08-03T06:36:58.435Z,29.94
2022-08-03T06:39:31.591Z,30.45
2022-08-03T06:41:59.862Z,30.86
2022-08-03T06:44:28.111Z,31.16
2022-08-03T06:46:56.494Z,31.41
2022-08-03T06:49:25.090Z,31.57
2022-08-03T06:52:04.224Z,31.67
2022-08-03T06:54:35.686Z,31.96
2022-08-03T06:57:04.918Z,32.06
2022-08-03T07:00:06.274Z,32.30
2022-08-03T07:02:21.414Z,32.05
2022-08-03T07:04:50.602Z,31.85
2022-08-03T07:07:19.540Z,32.13
2022-08-03T07:09:56.793Z,32.10
2022-08-03T07:12:27.787Z,32.18
2022-08-03T07:15:00.869Z,32.56
2022-08-03T07:17:31.285Z,32.91
2022-08-03T07:20:00.879Z,32.92
2022-08-03T07:22:29.161Z,33.35
2022-08-03T07:24:57.398Z,33.44
2022-08-03T07:27:27.265Z,33.41
2022-08-03T07:29:56.481Z,33.37
2022-08-03T07:32:25.594Z,34.04
2022-08-03T07:34:58.436Z,34.17
2022-08-03T07:37:29.778Z,34.54
2022-08-03T07:39:58.864Z,34.66
2022-08-03T07:42:28.285Z,34.96
2022-08-03T07:44:57.619Z,34.80
2022-08-03T07:47:35.090Z,34.74
2022-08-03T07:50:06.424Z,35.27
2022-08-03T07:52:53.779Z,35.45
2022-08-03T07:55:25.158Z,35.66
2022-08-03T07:58:05.591Z,35.67
2022-08-03T08:00:34.196Z,35.74
2022-08-03T08:03:03.212Z,35.74
2022-08-03T08:05:31.674Z,35.65
2022-08-03T08:08:01.845Z,35.78
2022-08-03T08:10:30.649Z,35.67
2022-08-03T08:12:58.930Z,35.96
2022-08-03T08:15:27.440Z,36.14
2022-08-03T08:18:00.003Z,36.25
2022-08-03T08:20:31.838Z,35.96
2022-08-03T08:23:02.857Z,35.82
2022-08-03T08:25:32.741Z,36.04
2022-08-03T08:28:29.285Z,36.23
2022-08-03T08:30:51.189Z,36.57
2022-08-03T08:33:23.075Z,36.35
2022-08-03T08:35:53.707Z,36.21
2022-08-03T08:38:23.582Z,36.38
2022-08-03T08:40:51.891Z,36.52
2022-08-03T08:43:20.123Z,36.63
2022-08-03T08:45:52.464Z,37.01
2022-08-03T08:48:24.783Z,37.52
2022-08-03T08:50:57.147Z,37.93
2022-08-03T08:53:28.984Z,37.58
2022-08-03T08:56:01.778Z,37.79
2022-08-03T08:58:34.996Z,38.38
2022-08-03T09:01:04.488Z,38.49
2022-08-03T09:03:35.817Z,38.43
2022-08-03T09:06:04.410Z,38.33
2022-08-03T09:08:33.265Z,38.33
2022-08-03T09:11:02.355Z,38.45
2022-08-03T09:13:33.150Z,38.67
2022-08-03T09:16:23.589Z,38.83
2022-08-03T09:18:54.555Z,39.30
2022-08-03T09:21:33.244Z,38.78
2022-08-03T09:24:06.218Z,38.51
2022-08-03T09:26:36.856Z,38.48
2022-08-03T09:29:14.955Z,38.88
2022-08-03T09:31:46.027Z,38.96
2022-08-03T09:34:16.926Z,38.93
2022-08-03T09:36:50.732Z,39.39
2022-08-03T09:39:19.836Z,39.49
2022-08-03T09:42:18.730Z,39.05
2022-08-03T09:44:52.958Z,39.21
2022-08-03T09:47:33.422Z,39.58
2022-08-03T09:50:07.034Z,39.15
2022-08-03T09:52:39.502Z,39.51
2022-08-03T09:55:23.668Z,39.44
2022-08-03T09:58:10.503Z,39.68
2022-08-03T10:01:00.255Z,39.69
2022-08-03T10:03:30.966Z,39.95
2022-08-03T10:05:59.965Z,40.14
2022-08-03T10:08:28.467Z,39.53
2022-08-03T10:10:58.843Z,39.61
2022-08-03T10:13:27.610Z,39.86
2022-08-03T10:16:23.398Z,39.82
2022-08-03T10:18:43.973Z,39.50
2022-08-03T10:21:16.873Z,39.63
2022-08-03T10:23:46.959Z,39.77
2022-08-03T10:26:22.781Z,39.78
2022-08-03T10:28:54.562Z,39.75
2022-08-03T10:31:24.433Z,39.65
2022-08-03T10:33:58.232Z,39.71
2022-08-03T10:36:30.806Z,40.00
2022-08-03T10:39:02.815Z,40.29
2022-08-03T10:41:46.620Z,40.26
2022-08-03T10:44:23.416Z,40.50
2022-08-03T10:46:52.947Z,40.21
2022-08-03T10:49:34.711Z,40.09
2022-08-03T10:52:10.439Z,39.98
2022-08-03T10:55:12.883Z,39.74
2022-08-03T10:57:48.767Z,38.75
2022-08-03T11:00:19.852Z,38.09
2022-08-03T11:03:17.811Z,37.33
2022-08-03T11:05:54.587Z,37.11
2022-08-03T11:08:32.689Z,36.81
2022-08-03T11:11:28.588Z,36.42
2022-08-03T11:14:04.995Z,35.77
2022-08-03T11:16:41.863Z,35.23
2022-08-03T11:19:12.999Z,34.67
2022-08-03T11:21:50.886Z,34.08
2022-08-03T11:24:37.266Z,33.62
2022-08-03T11:27:20.015Z,33.22
2022-08-03T11:30:17.730Z,32.88
2022-08-03T11:32:49.185Z,32.87
2022-08-03T11:35:18.687Z,32.72
2022-08-03T11:38:04.893Z,32.63
2022-08-03T11:40:53.467Z,32.30
2022-08-03T11:43:31.778Z,31.95
2022-08-03T11:46:06.116Z,31.73
2022-08-03T11:48:34.101Z,31.56
2022-08-03T11:51:04.057Z,31.26
2022-08-03T11:53:33.118Z,30.96
2022-08-03T11:56:13.035Z,30.89
2022-08-03T11:59:01.027Z,30.67
2022-08-03T12:01:37.744Z,30.55
2022-08-03T12:04:06.727Z,30.47
2022-08-03T12:06:54.797Z,30.31
2022-08-03T12:09:22.917Z,30.31
2022-08-03T12:11:59.699Z,30.37
2022-08-03T12:14:50.786Z,30.39
2022-08-03T12:17:19.505Z,30.29
2022-08-03T12:19:48.158Z,30.11
2022-08-03T12:22:17.239Z,30.04
2022-08-03T12:24:47.629Z,29.93
2022-08-03T12:27:26.610Z,29.92
2022-08-03T12:29:58.787Z,29.82
2022-08-03T12:32:29.725Z,29.52
2022-08-03T12:35:04.610Z,29.62
2022-08-03T12:37:33.187Z,29.78
2022-08-03T12:40:10.201Z,29.83
2022-08-03T12:42:40.691Z,29.89
2022-08-03T12:45:26.282Z,29.96
2022-08-03T12:48:03.758Z,30.13
2022-08-03T12:50:33.270Z,30.23
2022-08-03T12:53:08.001Z,30.33
2022-08-03T12:55:57.386Z,30.23
2022-08-03T12:58:38.792Z,30.12
2022-08-03T13:01:09.135Z,29.90
2022-08-03T13:03:50.501Z,29.64
2022-08-03T13:06:26.069Z,29.65
2022-08-03T13:09:12.521Z,29.85
2022-08-03T13:11:57.562Z,29.99
2022-08-03T13:14:28.765Z,29.93
2022-08-03T13:16:56.996Z,29.80
2022-08-03T13:19:25.130Z,29.65
2022-08-03T13:22:03.654Z,29.50
2022-08-03T13:24:33.801Z,29.43
2022-08-03T13:28:00.949Z,29.39
2022-08-03T13:29:53.089Z,29.26
2022-08-03T13:32:22.451Z,29.17
2022-08-03T13:34:50.702Z,29.12
2022-08-03T13:37:20.253Z,29.11
2022-08-03T13:39:58.768Z,29.04
2022-08-03T13:42:30.102Z,29.06
2022-08-03T13:44:59.108Z,29.10
2022-08-03T13:47:27.633Z,29.11
2022-08-03T13:50:00.345Z,29.17
2022-08-03T13:52:32.613Z,29.22
2022-08-03T13:55:01.709Z,29.22
2022-08-03T13:58:02.348Z,29.14
2022-08-03T14:00:27.025Z,29.11
2022-08-03T14:03:12.838Z,29.09
2022-08-03T14:05:43.666Z,28.99
2022-08-03T14:08:12.735Z,28.86
2022-08-03T14:10:43.428Z,28.63
2022-08-03T14:13:16.867Z,28.61
2022-08-03T14:15:50.230Z,28.60
2022-08-03T14:18:28.550Z,28.49
2022-08-03T14:21:06.772Z,28.37
2022-08-03T14:23:37.849Z,28.40
2022-08-03T14:26:07.748Z,28.46
2022-08-03T14:28:36.479Z,28.51
2022-08-03T14:31:08.205Z,28.53
2022-08-03T14:33:37.003Z,28.53
2022-08-03T14:36:05.782Z,28.52
2022-08-03T14:38:34.014Z,28.56
2022-08-03T14:41:02.273Z,28.54
2022-08-03T14:43:33.732Z,28.47
2022-08-03T14:46:02.760Z,28.31
2022-08-03T14:50:33.158Z,28.21
2022-08-03T14:51:19.533Z,27.99
2022-08-03T14:53:47.774Z,27.91
2022-08-03T14:56:16.308Z,27.91
2022-08-03T14:58:44.470Z,27.87
2022-08-03T15:02:02.579Z,27.88
2022-08-03T15:04:00.752Z,27.84
2022-08-03T15:06:28.955Z,27.84
2022-08-03T15:09:21.229Z,27.85
2022-08-03T15:11:45.561Z,27.79
2022-08-03T15:14:14.692Z,27.70
2022-08-03T15:16:43.340Z,27.68
2022-08-03T15:20:03.744Z,27.60
2022-08-03T15:22:01.027Z,27.43
2022-08-03T15:24:30.007Z,27.33
2022-08-03T15:26:58.722Z,27.24
2022-08-03T15:30:07.283Z,27.15
2022-08-03T15:32:15.494Z,27.02
2022-08-03T15:34:50.271Z,27.01
2022-08-03T15:37:20.924Z,27.00
2022-08-03T15:39:59.783Z,27.00
2022-08-03T15:42:30.369Z,27.01
2022-08-03T15:44:58.806Z,27.02
2022-08-03T15:47:27.325Z,27.01
2022-08-03T15:49:55.614Z,26.99
2022-08-03T15:52:23.770Z,26.98
2022-08-03T15:54:51.998Z,26.92
2022-08-03T15:57:20.574Z,26.85
2022-08-03T15:59:49.001Z,26.81
2022-08-03T16:02:17.227Z,26.76
2022-08-03T16:04:45.481Z,26.71
2022-08-03T16:07:16.049Z,26.65
2022-08-03T16:09:44.469Z,26.60
2022-08-03T16:12:16.086Z,26.56
2022-08-03T16:14:53.748Z,26.51
2022-08-03T16:17:23.704Z,26.47
2022-08-03T16:19:53.409Z,26.41
2022-08-03T16:22:25.031Z,26.35
2022-08-03T16:24:54.641Z,26.32
2022-08-03T16:27:37.076Z,26.29
2022-08-03T16:30:16.012Z,26.24
2022-08-03T16:32:45.616Z,26.21
2022-08-03T16:35:19.679Z,26.17
2022-08-03T16:37:50.751Z,26.12
2022-08-03T16:40:25.296Z,26.07
2022-08-03T16:42:54.362Z,26.03
2022-08-03T16:45:22.783Z,25.98
2022-08-03T16:48:01.593Z,25.92
2022-08-03T16:50:36.068Z,25.89
2022-08-03T16:53:09.303Z,25.87
2022-08-03T16:55:48.461Z,25.83
2022-08-03T16:58:34.412Z,25.76
2022-08-03T17:01:21.559Z,25.71
2022-08-03T17:04:03.218Z,25.67
2022-08-03T17:06:44.961Z,25.60
2022-08-03T17:09:17.992Z,25.54
2022-08-03T17:11:49.891Z,25.50
2022-08-03T17:14:28.474Z,25.46
2022-08-03T17:17:02.112Z,25.39
2022-08-03T17:19:32.788Z,25.34
2022-08-03T17:22:20.850Z,25.26
2022-08-03T17:24:52.220Z,25.22
2022-08-03T17:28:51.422Z,25.18
2022-08-03T17:30:19.044Z,25.11
2022-08-03T17:32:57.203Z,25.04
2022-08-03T17:35:34.435Z,24.97
2022-08-03T17:38:10.444Z,24.90
2022-08-03T17:40:52.087Z,24.81
2022-08-03T17:44:13.195Z,24.72
2022-08-03T17:46:10.787Z,24.63
2022-08-03T17:48:41.144Z,24.56
2022-08-03T17:51:23.032Z,24.47
2022-08-03T17:54:21.811Z,24.38
2022-08-03T17:57:21.853Z,24.29
2022-08-03T18:00:23.007Z,24.18
2022-08-03T18:03:20.941Z,24.07
2022-08-03T18:06:10.956Z,23.95
2022-08-03T18:08:50.240Z,23.85
2022-08-03T18:11:23.014Z,23.75
2022-08-03T18:14:17.926Z,23.67
2022-08-03T18:16:56.439Z,23.57
2022-08-03T18:20:02.903Z,23.48
2022-08-03T18:22:16.638Z,23.36
2022-08-03T18:24:48.658Z,23.25
2022-08-03T18:27:19.515Z,23.10
2022-08-03T18:29:52.177Z,22.94
2022-08-03T18:32:20.748Z,22.71
2022-08-03T18:34:58.243Z,22.56
2022-08-03T18:37:27.559Z,22.43
2022-08-03T18:39:58.508Z,22.32
2022-08-03T18:42:28.528Z,22.16
2022-08-03T18:45:55.245Z,22.05
2022-08-03T18:48:12.077Z,21.91
2022-08-03T18:50:53.837Z,21.80
2022-08-03T18:54:03.049Z,21.69
2022-08-03T18:56:53.168Z,21.55
2022-08-03T18:59:43.112Z,21.47
2022-08-03T19:02:32.989Z,21.39
2022-08-03T19:05:08.343Z,21.27
2022-08-03T19:07:38.410Z,21.09
2022-08-03T19:10:10.835Z,20.97
2022-08-03T19:12:56.442Z,20.80
2022-08-03T19:15:36.768Z,20.58
2022-08-03T19:18:12.134Z,20.45
2022-08-03T19:20:46.774Z,20.35
2022-08-03T19:23:18.241Z,20.25
2022-08-03T19:25:46.554Z,20.11
2022-08-03T19:28:17.297Z,20.05
2022-08-03T19:30:53.252Z,19.99
2022-08-03T19:33:25.817Z,19.86
2022-08-03T19:35:58.386Z,19.83
2022-08-03T19:38:29.830Z,19.81
2022-08-03T19:41:03.249Z,19.79
2022-08-03T19:43:49.499Z,19.75
2022-08-03T19:46:30.542Z,19.68
2022-08-03T19:49:14.960Z,19.62
2022-08-03T19:54:54.019Z,19.39
2022-08-03T19:57:25.451Z,19.29
2022-08-03T19:59:56.739Z,19.12
2022-08-03T20:02:26.172Z,19.01
2022-08-03T20:04:57.214Z,18.96
2022-08-03T20:07:27.186Z,18.89
2022-08-03T20:09:56.625Z,18.78
2022-08-03T20:12:28.896Z,18.68
2022-08-03T20:14:58.207Z,18.63
2022-08-03T20:17:55.229Z,18.55
2022-08-03T20:20:21.773Z,18.47
2022-08-03T20:22:57.733Z,18.41
2022-08-03T20:28:33.454Z,18.31
2022-08-03T20:31:02.096Z,18.34
2022-08-03T20:33:46.372Z,18.33
2022-08-03T20:36:18.789Z,18.28
2022-08-03T20:38:48.491Z,18.28
2022-08-03T20:41:17.921Z,18.27
2022-08-03T20:43:49.215Z,18.14
2022-08-03T20:46:36.021Z,18.06
2022-08-03T20:49:08.683Z,18.03
2022-08-03T20:51:50.678Z,17.92
2022-08-03T20:54:30.918Z,17.73
2022-08-03T20:57:03.601Z,17.62
2022-08-03T20:59:50.501Z,17.54
2022-08-03T21:02:29.454Z,17.49
2022-08-03T21:05:08.442Z,17.46
2022-08-03T21:08:05.349Z,17.41
2022-08-03T21:10:39.842Z,17.42
2022-08-03T21:13:08.996Z,19.50
2022-08-03T21:13:12.580Z,18.34
2022-08-03T21:16:06.139Z,17.47
2022-08-03T21:18:45.256Z,17.40
2022-08-03T21:21:15.907Z,17.34
2022-08-03T21:23:48.656Z,17.27
2022-08-03T21:26:23.984Z,17.25
2022-08-03T21:28:56.484Z,17.24
2022-08-03T21:31:26.436Z,17.24
2022-08-03T21:34:03.914Z,17.25
2022-08-03T21:36:35.322Z,17.25
2022-08-03T21:39:07.572Z,17.19
2022-08-03T21:41:37.509Z,17.13
2022-08-03T21:44:07.067Z,17.08
2022-08-03T21:46:41.280Z,17.08
2022-08-03T21:50:04.749Z,17.03
2022-08-03T21:52:00.983Z,16.98
2022-08-03T21:54:35.598Z,16.99
2022-08-03T21:57:09.097Z,17.03
2022-08-03T21:59:39.047Z,17.09
2022-08-03T22:02:13.862Z,17.13
2022-08-03T22:04:56.952Z,17.19
2022-08-03T22:07:28.562Z,17.22
2022-08-03T22:09:59.504Z,17.25
2022-08-03T22:12:30.098Z,17.27
2022-08-03T22:15:02.010Z,17.30
2022-08-03T22:17:54.849Z,17.31
2022-08-03T22:20:21.907Z,17.34
2022-08-03T22:22:55.309Z,17.36
2022-08-03T22:25:29.309Z,17.37
2022-08-03T22:28:07.191Z,17.36
2022-08-03T22:30:36.442Z,17.36
2022-08-03T22:33:11.224Z,17.36
2022-08-03T22:35:47.417Z,17.39
2022-08-03T22:38:18.124Z,17.40
2022-08-03T22:40:49.063Z,17.39
2022-08-03T22:43:17.434Z,17.37
2022-08-03T22:46:09.681Z,17.35
2022-08-03T22:48:40.688Z,17.34
2022-08-03T22:51:10.499Z,17.30
2022-08-03T22:53:39.635Z,17.23
2022-08-03T22:56:08.950Z,17.11
2022-08-03T22:58:37.291Z,17.02
2022-08-03T23:01:11.772Z,16.94
2022-08-03T23:04:00.415Z,16.75
2022-08-03T23:06:40.808Z,16.49
2022-08-03T23:09:13.171Z,16.40
2022-08-03T23:11:45.980Z,16.22
2022-08-03T23:14:16.959Z,16.18
2022-08-03T23:16:47.402Z,16.21
2022-08-03T23:19:25.392Z,16.17
2022-08-03T23:22:02.644Z,16.10
2022-08-03T23:24:36.237Z,16.08
2022-08-03T23:27:06.016Z,16.05
2022-08-03T23:29:36.451Z,16.03
2022-08-03T23:32:06.035Z,16.00
2022-08-03T23:34:53.319Z,15.98
2022-08-03T23:37:21.982Z,15.89
2022-08-03T23:39:51.593Z,15.84
2022-08-03T23:42:21.747Z,15.81
2022-08-03T23:44:54.853Z,15.72
2022-08-03T23:47:23.815Z,15.73
2022-08-03T23:49:53.718Z,15.74
2022-08-03T23:52:38.145Z,15.73
2022-08-03T23:55:24.888Z,15.76
2022-08-03T23:58:29.983Z,15.77
